createdAt,value
2023-04-25T00:02:12.360Z,13.67
2023-04-25T00:04:41.139Z,14.10
2023-04-25T00:07:08.643Z,14.30
2023-04-25T00:09:35.560Z,14.30
2023-04-25T00:12:02.960Z,13.83
2023-04-25T00:14:30.062Z,15.43
2023-04-25T00:16:57.456Z,15.20
2023-04-25T00:19:24.307Z,13.80
2023-04-25T00:21:52.840Z,7.57
2023-04-25T00:24:20.181Z,16.73
2023-04-25T00:26:47.392Z,14.87
2023-04-25T00:29:14.155Z,15.27
2023-04-25T00:31:41.479Z,11.60
2023-04-25T00:34:09.338Z,14.23
2023-04-25T00:36:37.209Z,14.97
2023-04-25T00:39:05.622Z,15.90
2023-04-25T00:41:33.355Z,13.17
2023-04-25T00:44:01.442Z,17.47
2023-04-25T00:46:28.594Z,20.93
2023-04-25T00:48:55.406Z,14.80
2023-04-25T00:51:22.918Z,18.77
2023-04-25T00:53:51.737Z,12.67
2023-04-25T00:56:21.801Z,16.27
2023-04-25T00:58:49.265Z,13.37
2023-04-25T01:01:16.137Z,17.20
2023-04-25T01:03:44.167Z,16.73
2023-04-25T01:06:11.677Z,12.10
2023-04-25T01:08:39.632Z,16.93
2023-04-25T01:11:06.977Z,15.00
2023-04-25T01:13:36.116Z,17.50
2023-04-25T01:16:03.960Z,15.47
2023-04-25T01:18:31.104Z,17.77
2023-04-25T01:21:03.733Z,14.43
2023-04-25T01:23:30.992Z,16.63
2023-04-25T01:25:57.803Z,14.80
2023-04-25T01:28:25.072Z,17.87
2023-04-25T01:30:52.879Z,15.70
2023-04-25T01:33:22.222Z,17.07
2023-04-25T01:35:49.055Z,13.67
2023-04-25T01:38:17.680Z,14.50
2023-04-25T01:40:46.957Z,13.03
2023-04-25T01:43:15.581Z,9.77
2023-04-25T01:45:43.113Z,15.40
2023-04-25T01:48:11.610Z,21.03
2023-04-25T01:50:38.891Z,20.37
2023-04-25T01:53:06.600Z,17.40
2023-04-25T01:55:35.080Z,20.30
2023-04-25T01:58:03.610Z,18.07
2023-04-25T02:00:30.936Z,11.53
2023-04-25T02:02:59.244Z,15.93
2023-04-25T02:05:26.848Z,13.03
2023-04-25T02:07:53.649Z,14.47
2023-04-25T02:10:20.938Z,23.00
2023-04-25T02:12:49.147Z,15.80
2023-04-25T02:15:16.364Z,14.30
2023-04-25T02:17:43.233Z,17.10
2023-04-25T02:20:11.562Z,15.00
2023-04-25T02:22:38.440Z,14.60
2023-04-25T02:25:06.585Z,14.97
2023-04-25T02:27:33.413Z,18.57
2023-04-25T02:30:01.603Z,12.03
2023-04-25T02:32:28.638Z,17.43
2023-04-25T02:34:55.825Z,13.43
2023-04-25T02:37:22.600Z,19.23
2023-04-25T02:39:49.846Z,12.03
2023-04-25T02:42:16.918Z,14.50
2023-04-25T02:44:44.127Z,15.83
2023-04-25T02:47:12.344Z,16.37
2023-04-25T02:49:39.178Z,16.37
2023-04-25T02:52:06.655Z,14.97
2023-04-25T02:54:33.617Z,14.37
2023-04-25T02:57:01.544Z,16.50
2023-04-25T02:59:28.365Z,16.47
2023-04-25T03:01:55.523Z,18.53
2023-04-25T03:04:24.888Z,18.50
2023-04-25T03:06:52.107Z,23.07
2023-04-25T03:09:19.012Z,14.03
2023-04-25T03:11:46.868Z,13.70
2023-04-25T03:14:14.332Z,16.77
2023-04-25T03:16:41.502Z,19.23
2023-04-25T03:19:08.291Z,21.60
2023-04-25T03:21:37.797Z,16.80
2023-04-25T03:24:06.776Z,17.00
2023-04-25T03:26:33.927Z,20.93
2023-04-25T03:29:00.702Z,18.17
2023-04-25T03:31:27.852Z,17.40
2023-04-25T03:33:54.678Z,18.20
2023-04-25T03:36:21.453Z,20.93
2023-04-25T03:38:49.545Z,19.27
2023-04-25T03:41:16.601Z,18.03
2023-04-25T03:43:43.338Z,18.80
2023-04-25T03:46:10.467Z,22.67
2023-04-25T03:48:37.357Z,26.20
2023-04-25T03:51:04.449Z,16.40
2023-04-25T03:53:31.549Z,26.23
2023-04-25T03:55:59.682Z,20.07
2023-04-25T03:58:26.864Z,22.47
2023-04-25T04:00:53.735Z,18.50
2023-04-25T04:03:21.637Z,20.27
2023-04-25T04:05:49.030Z,17.13
2023-04-25T04:08:16.025Z,22.17
2023-04-25T04:10:46.177Z,17.93
2023-04-25T04:13:14.704Z,20.07
2023-04-25T04:15:41.603Z,18.10
2023-04-25T04:18:08.846Z,22.73
2023-04-25T04:20:35.603Z,20.77
2023-04-25T04:23:03.091Z,19.97
2023-04-25T04:25:30.994Z,19.07
2023-04-25T04:27:58.579Z,27.47
2023-04-25T04:30:26.766Z,20.00
2023-04-25T04:32:53.646Z,24.50
2023-04-25T04:35:20.500Z,28.17
2023-04-25T04:37:47.341Z,25.07
2023-04-25T04:40:16.470Z,24.23
2023-04-25T04:42:43.742Z,23.90
2023-04-25T04:45:11.549Z,19.73
2023-04-25T04:47:40.605Z,23.57
2023-04-25T04:50:09.768Z,23.10
2023-04-25T04:52:37.005Z,25.90
2023-04-25T04:55:05.649Z,26.97
2023-04-25T04:57:33.885Z,26.07
2023-04-25T05:00:01.398Z,30.07
2023-04-25T05:02:28.497Z,22.63
2023-04-25T05:04:58.042Z,26.70
2023-04-25T05:07:24.890Z,31.83
2023-04-25T05:09:52.028Z,27.43
2023-04-25T05:12:18.821Z,31.43
2023-04-25T05:14:45.941Z,23.77
2023-04-25T05:17:12.733Z,32.67
2023-04-25T05:19:40.909Z,32.57
2023-04-25T05:22:09.016Z,32.83
2023-04-25T05:24:36.232Z,28.17
2023-04-25T05:27:03.371Z,19.33
2023-04-25T05:29:30.864Z,25.70
2023-04-25T05:31:57.694Z,25.53
2023-04-25T05:34:24.985Z,30.87
2023-04-25T05:36:51.758Z,24.87
2023-04-25T05:39:20.278Z,36.37
2023-04-25T05:41:47.112Z,26.63
2023-04-25T05:44:14.195Z,27.57
2023-04-25T05:46:41.093Z,22.80
2023-04-25T05:49:08.034Z,25.37
2023-04-25T05:51:34.950Z,30.77
2023-04-25T05:54:02.024Z,26.63
2023-04-25T05:56:30.286Z,33.27
2023-04-25T05:58:57.453Z,24.40
2023-04-25T06:01:24.455Z,28.17
2023-04-25T06:06:19.520Z,23.90
2023-04-25T06:08:46.715Z,33.03
2023-04-25T06:11:13.647Z,27.50
2023-04-25T06:13:42.103Z,25.70
2023-04-25T06:16:08.991Z,30.17
2023-04-25T06:18:36.260Z,24.10
2023-04-25T06:21:03.484Z,27.60
2023-04-25T06:23:30.767Z,24.27
2023-04-25T06:25:57.569Z,24.33
2023-04-25T06:28:25.635Z,23.87
2023-04-25T06:30:53.731Z,23.27
2023-04-25T06:33:21.838Z,32.70
2023-04-25T06:35:48.670Z,17.37
2023-04-25T06:38:16.551Z,28.07
2023-04-25T06:40:43.293Z,26.47
2023-04-25T06:43:10.472Z,20.57
2023-04-25T06:45:37.310Z,25.13
2023-04-25T06:48:06.178Z,22.37
2023-04-25T06:50:32.944Z,34.90
2023-04-25T06:53:00.052Z,32.60
2023-04-25T06:55:27.111Z,19.87
2023-04-25T06:57:53.851Z,24.17
2023-04-25T07:00:21.572Z,19.30
2023-04-25T07:02:48.808Z,28.93
2023-04-25T07:05:19.205Z,30.00
2023-04-25T07:07:46.541Z,23.43
2023-04-25T07:10:13.317Z,20.83
2023-04-25T07:12:40.618Z,18.03
2023-04-25T07:15:10.965Z,18.97
2023-04-25T07:17:38.126Z,11.30
2023-04-25T07:20:06.837Z,24.30
2023-04-25T07:22:35.016Z,13.27
2023-04-25T07:25:01.860Z,28.60
2023-04-25T07:27:29.234Z,16.67
2023-04-25T07:29:56.132Z,13.87
2023-04-25T07:32:23.669Z,19.90
2023-04-25T07:34:52.115Z,22.10
2023-04-25T07:37:20.233Z,14.87
2023-04-25T07:39:48.555Z,12.97
2023-04-25T07:42:15.874Z,10.17
2023-04-25T07:44:43.298Z,9.50
2023-04-25T07:47:10.721Z,9.60
2023-04-25T07:49:38.433Z,19.13
2023-04-25T07:52:09.944Z,16.17
2023-04-25T07:54:37.075Z,15.13
2023-04-25T07:57:07.571Z,17.03
2023-04-25T07:59:34.483Z,26.80
2023-04-25T08:02:02.266Z,13.43
2023-04-25T08:04:29.885Z,13.17
2023-04-25T08:06:57.128Z,14.63
2023-04-25T08:09:23.952Z,17.87
2023-04-25T08:11:50.858Z,10.17
2023-04-25T08:14:19.002Z,19.80
2023-04-25T08:16:46.161Z,12.10
2023-04-25T08:19:13.168Z,15.97
2023-04-25T08:21:39.995Z,19.97
2023-04-25T08:24:07.617Z,13.67
2023-04-25T08:26:35.434Z,20.93
2023-04-25T08:29:05.861Z,12.37
2023-04-25T08:31:34.397Z,14.63
2023-04-25T08:34:02.183Z,16.87
2023-04-25T08:38:59.863Z,19.53
2023-04-25T08:41:27.509Z,14.50
2023-04-25T08:43:56.927Z,14.27
2023-04-25T08:46:24.831Z,14.27
2023-04-25T08:48:57.829Z,24.30
2023-04-25T08:51:26.862Z,18.13
2023-04-25T08:53:57.838Z,20.07
2023-04-25T08:56:29.158Z,20.93
2023-04-25T08:58:56.399Z,18.47
2023-04-25T09:01:23.571Z,12.53
2023-04-25T09:03:51.187Z,19.37
2023-04-25T09:06:20.137Z,12.17
2023-04-25T09:08:47.332Z,14.13
2023-04-25T09:11:15.256Z,8.70
2023-04-25T09:13:42.476Z,8.63
2023-04-25T09:16:09.286Z,18.57
2023-04-25T09:18:36.699Z,12.43
2023-04-25T09:21:13.841Z,11.07
2023-04-25T09:23:45.430Z,16.37
2023-04-25T09:26:15.575Z,10.73
2023-04-25T09:28:44.425Z,10.20
2023-04-25T09:31:12.533Z,11.70
2023-04-25T09:33:39.516Z,13.20
2023-04-25T09:36:08.515Z,7.67
2023-04-25T09:38:43.856Z,9.83
2023-04-25T09:41:11.340Z,10.40
2023-04-25T09:43:39.674Z,17.60
2023-04-25T09:46:10.698Z,8.83
2023-04-25T09:48:38.014Z,13.33
2023-04-25T09:51:09.164Z,9.93
2023-04-25T09:53:38.276Z,5.30
2023-04-25T09:56:08.573Z,8.07
2023-04-25T09:58:37.188Z,7.00
2023-04-25T10:01:05.940Z,15.20
2023-04-25T10:03:34.491Z,7.93
2023-04-25T10:06:03.261Z,24.47
2023-04-25T10:08:33.445Z,4.63
2023-04-25T10:11:01.875Z,12.17
2023-04-25T10:13:31.043Z,8.10
2023-04-25T10:15:59.025Z,12.90
2023-04-25T10:18:27.967Z,15.33
2023-04-25T10:20:55.847Z,8.07
2023-04-25T10:23:22.789Z,14.87
2023-04-25T10:25:51.102Z,16.17
2023-04-25T10:28:18.293Z,8.57
2023-04-25T10:30:59.990Z,10.33
2023-04-25T10:33:37.919Z,8.33
2023-04-25T10:36:12.407Z,10.43
2023-04-25T10:38:39.760Z,11.90
2023-04-25T10:41:09.375Z,11.03
2023-04-25T10:43:41.393Z,12.60
2023-04-25T10:46:17.534Z,13.33
2023-04-25T10:48:50.336Z,10.50
2023-04-25T10:51:19.619Z,17.23
2023-04-25T10:53:47.349Z,8.70
2023-04-25T10:56:18.874Z,7.23
2023-04-25T10:58:47.292Z,7.40
2023-04-25T11:01:21.746Z,3.93
2023-04-25T11:03:51.852Z,6.10
2023-04-25T11:06:24.554Z,12.43
2023-04-25T11:08:53.073Z,5.47
2023-04-25T11:11:21.168Z,7.97
2023-04-25T11:13:50.902Z,8.23
2023-04-25T11:16:27.431Z,12.80
2023-04-25T11:18:58.213Z,10.73
2023-04-25T11:21:27.301Z,5.90
2023-04-25T11:23:55.085Z,5.43
2023-04-25T11:26:22.913Z,9.07
2023-04-25T11:28:50.437Z,6.13
2023-04-25T11:31:20.989Z,6.30
2023-04-25T11:33:50.125Z,6.57
2023-04-25T11:36:17.188Z,8.37
2023-04-25T11:38:44.086Z,6.27
2023-04-25T11:41:11.136Z,5.13
2023-04-25T11:43:37.963Z,10.67
2023-04-25T11:46:08.647Z,7.20
2023-04-25T11:48:39.246Z,8.37
2023-04-25T11:51:07.597Z,8.83
2023-04-25T11:53:34.843Z,8.03
2023-04-25T11:56:02.095Z,13.37
2023-04-25T11:58:29.226Z,8.53
2023-04-25T12:00:59.575Z,9.77
2023-04-25T12:03:32.412Z,12.00
2023-04-25T12:06:04.846Z,10.73
2023-04-25T12:08:33.768Z,8.27
2023-04-25T12:11:00.577Z,8.00
2023-04-25T12:13:29.442Z,5.37
2023-04-25T12:15:57.513Z,4.43
2023-04-25T12:18:28.750Z,3.77
2023-04-25T12:20:56.112Z,7.03
2023-04-25T12:23:28.494Z,4.50
2023-04-25T12:25:57.100Z,6.10
2023-04-25T12:28:25.805Z,6.30
2023-04-25T12:30:54.622Z,6.20
2023-04-25T12:33:22.136Z,4.37
2023-04-25T12:35:48.969Z,6.40
2023-04-25T12:38:22.549Z,4.30
2023-04-25T12:40:49.453Z,5.37
2023-04-25T12:43:19.119Z,4.47
2023-04-25T12:45:46.285Z,11.10
2023-04-25T12:48:13.483Z,7.57
2023-04-25T12:50:40.322Z,10.83
2023-04-25T12:53:07.210Z,3.07
2023-04-25T12:55:34.034Z,2.93
2023-04-25T12:58:01.192Z,6.07
2023-04-25T13:00:29.927Z,8.33
2023-04-25T13:02:57.155Z,7.30
2023-04-25T13:05:24.018Z,5.47
2023-04-25T13:07:51.145Z,8.97
2023-04-25T13:10:18.833Z,7.10
2023-04-25T13:12:47.432Z,5.53
2023-04-25T13:15:16.374Z,4.50
2023-04-25T13:17:45.078Z,5.00
2023-04-25T13:20:12.257Z,3.13
2023-04-25T13:22:40.605Z,6.63
2023-04-25T13:25:09.084Z,5.30
2023-04-25T13:27:37.831Z,6.20
2023-04-25T13:30:08.559Z,5.73
2023-04-25T13:32:37.251Z,5.50
2023-04-25T13:35:09.184Z,4.30
2023-04-25T13:37:37.935Z,3.97
2023-04-25T13:40:07.289Z,2.60
2023-04-25T13:42:34.421Z,6.70
2023-04-25T13:45:01.220Z,7.00
2023-04-25T13:47:28.780Z,5.07
2023-04-25T13:49:55.627Z,5.80
2023-04-25T13:52:25.710Z,4.70
2023-04-25T13:54:52.565Z,2.70
2023-04-25T13:57:19.902Z,8.27
2023-04-25T13:59:47.572Z,3.00
2023-04-25T14:02:15.023Z,3.10
2023-04-25T14:04:41.918Z,4.23
2023-04-25T14:07:09.381Z,1.40
2023-04-25T14:09:37.608Z,4.93
2023-04-25T14:12:05.009Z,2.07
2023-04-25T14:14:31.848Z,3.70
2023-04-25T14:16:59.030Z,3.77
2023-04-25T14:19:26.106Z,9.17
2023-04-25T14:21:53.188Z,8.63
2023-04-25T14:24:19.969Z,6.63
2023-04-25T14:26:48.521Z,7.10
2023-04-25T14:29:15.357Z,4.17
2023-04-25T14:31:42.322Z,7.00
2023-04-25T14:34:09.649Z,6.40
2023-04-25T14:36:37.169Z,9.43
2023-04-25T14:39:06.468Z,5.93
2023-04-25T14:41:33.684Z,4.53
2023-04-25T14:44:02.597Z,4.77
2023-04-25T14:46:29.657Z,5.60
2023-04-25T14:48:57.537Z,6.53
2023-04-25T14:51:24.717Z,1.98
2023-04-25T14:53:52.866Z,3.05
2023-04-25T14:56:19.959Z,4.78
2023-04-25T14:58:47.523Z,5.80
2023-04-25T15:01:16.129Z,5.37
2023-04-25T15:03:43.388Z,4.43
2023-04-25T15:06:10.892Z,4.50
2023-04-25T15:08:38.114Z,8.03
2023-04-25T15:11:05.100Z,6.67
2023-04-25T15:13:33.905Z,9.43
2023-04-25T15:16:01.038Z,6.90
2023-04-25T15:18:29.527Z,4.97
2023-04-25T15:20:56.401Z,6.17
2023-04-25T15:23:26.350Z,8.93
2023-04-25T15:25:54.121Z,7.90
2023-04-25T15:28:22.608Z,6.37
2023-04-25T15:30:49.561Z,7.07
2023-04-25T15:33:16.772Z,9.27
2023-04-25T15:35:45.933Z,5.13
2023-04-25T15:38:13.471Z,5.47
2023-04-25T15:40:41.228Z,7.00
2023-04-25T15:43:11.267Z,4.33
2023-04-25T15:45:38.128Z,6.03
2023-04-25T15:48:05.929Z,11.48
2023-04-25T15:50:32.973Z,4.80
2023-04-25T15:53:02.018Z,5.77
2023-04-25T15:55:29.126Z,5.03
2023-04-25T15:57:56.468Z,2.30
2023-04-25T16:00:23.872Z,5.80
2023-04-25T16:02:51.267Z,7.07
2023-04-25T16:05:18.777Z,4.90
2023-04-25T16:07:47.112Z,3.87
2023-04-25T16:10:19.944Z,5.20
2023-04-25T16:12:50.518Z,5.07
2023-04-25T16:15:18.146Z,9.23
2023-04-25T16:17:45.057Z,3.07
2023-04-25T16:20:13.248Z,7.13
2023-04-25T16:22:42.532Z,5.53
2023-04-25T16:25:10.304Z,3.67
2023-04-25T16:27:39.874Z,4.90
2023-04-25T16:30:08.280Z,4.07
2023-04-25T16:32:35.753Z,5.50
2023-04-25T16:35:02.789Z,6.20
2023-04-25T16:37:30.027Z,5.37
2023-04-25T16:39:56.829Z,4.17
2023-04-25T16:42:24.056Z,3.43
2023-04-25T16:44:52.234Z,4.57
2023-04-25T16:47:20.533Z,4.63
2023-04-25T16:49:47.940Z,7.97
2023-04-25T16:52:15.984Z,7.83
2023-04-25T16:54:43.296Z,7.60
2023-04-25T16:57:11.193Z,9.07
2023-04-25T16:59:38.211Z,4.90
2023-04-25T17:02:10.958Z,9.03
2023-04-25T17:04:38.304Z,3.77
2023-04-25T17:07:05.813Z,7.57
2023-04-25T17:09:32.941Z,5.00
2023-04-25T17:12:00.483Z,5.60
2023-04-25T17:14:27.375Z,8.50
2023-04-25T17:16:54.632Z,5.47
2023-04-25T17:19:22.980Z,8.60
2023-04-25T17:21:50.903Z,5.73
2023-04-25T17:24:18.173Z,6.13
2023-04-25T17:26:47.429Z,8.37
2023-04-25T17:29:15.632Z,6.50
2023-04-25T17:31:44.915Z,7.43
2023-04-25T17:34:16.473Z,5.17
2023-04-25T17:36:45.282Z,6.77
2023-04-25T17:39:14.739Z,10.57
2023-04-25T17:41:42.123Z,7.27
2023-04-25T17:44:09.133Z,5.33
2023-04-25T17:46:36.767Z,6.93
2023-04-25T17:49:03.740Z,7.73
2023-04-25T17:51:31.779Z,6.47
2023-04-25T17:53:59.865Z,5.33
2023-04-25T17:56:27.720Z,8.50
2023-04-25T17:58:55.685Z,6.47
2023-04-25T18:01:23.308Z,2.77
2023-04-25T18:03:51.538Z,5.70
2023-04-25T18:06:19.506Z,5.67
2023-04-25T18:08:46.550Z,7.67
2023-04-25T18:11:15.731Z,6.50
2023-04-25T18:13:43.062Z,8.43
2023-04-25T18:16:10.381Z,9.00
2023-04-25T18:18:37.994Z,12.43
2023-04-25T18:21:07.977Z,5.43
2023-04-25T18:23:35.127Z,6.87
2023-04-25T18:26:02.640Z,5.07
2023-04-25T18:28:30.925Z,7.53
2023-04-25T18:30:58.001Z,4.90
2023-04-25T18:33:25.240Z,9.53
2023-04-25T18:38:34.969Z,8.43
2023-04-25T18:41:27.140Z,7.43
2023-04-25T18:43:51.740Z,11.07
2023-04-25T18:46:22.733Z,12.93
2023-04-25T18:48:51.680Z,10.20
2023-04-25T18:51:19.007Z,6.43
2023-04-25T18:53:46.476Z,11.77
2023-04-25T18:56:17.396Z,8.63
2023-04-25T18:58:44.153Z,6.77
2023-04-25T19:01:13.097Z,8.17
2023-04-25T19:03:41.166Z,7.10
2023-04-25T19:06:08.401Z,9.20
2023-04-25T19:08:35.212Z,6.33
2023-04-25T19:11:10.763Z,8.13
2023-04-25T19:13:42.274Z,4.70
2023-04-25T19:16:09.944Z,7.60
2023-04-25T19:18:38.976Z,6.97
2023-04-25T19:21:06.874Z,8.43
2023-04-25T19:23:33.858Z,12.13
2023-04-25T19:26:01.040Z,11.97
2023-04-25T19:28:29.387Z,4.93
2023-04-25T19:30:56.471Z,14.63
2023-04-25T19:33:23.407Z,12.37
2023-04-25T19:35:52.085Z,10.07
2023-04-25T19:38:18.933Z,6.93
2023-04-25T19:40:45.793Z,6.90
2023-04-25T19:43:12.976Z,8.87
2023-04-25T19:45:40.146Z,14.97
2023-04-25T19:48:08.706Z,7.43
2023-04-25T19:50:36.027Z,9.80
2023-04-25T19:53:04.296Z,6.13
2023-04-25T19:55:31.412Z,13.53
2023-04-25T19:57:58.194Z,7.37
2023-04-25T20:00:25.121Z,7.73
2023-04-25T20:02:51.992Z,7.50
2023-04-25T20:05:19.171Z,8.10
2023-04-25T20:07:46.039Z,11.53
2023-04-25T20:10:16.002Z,13.13
2023-04-25T20:12:44.125Z,9.33
2023-04-25T20:15:12.004Z,11.13
2023-04-25T20:17:40.058Z,9.00
2023-04-25T20:20:08.300Z,11.43
2023-04-25T20:22:36.934Z,12.63
2023-04-25T20:25:04.808Z,4.87
2023-04-25T20:27:33.450Z,8.43
2023-04-25T20:30:04.487Z,8.83
2023-04-25T20:32:34.344Z,6.10
2023-04-25T20:35:02.337Z,12.40
2023-04-25T20:37:31.489Z,7.10
2023-04-25T20:39:59.003Z,5.67
2023-04-25T20:42:26.188Z,8.57
2023-04-25T20:44:54.753Z,10.33
2023-04-25T20:47:22.060Z,12.57
2023-04-25T20:49:49.359Z,9.77
2023-04-25T20:52:17.111Z,6.00
2023-04-25T20:54:50.617Z,7.80
2023-04-25T20:57:17.713Z,8.87
2023-04-25T20:59:44.851Z,4.50
2023-04-25T21:02:15.548Z,11.17
2023-04-25T21:04:44.049Z,7.90
2023-04-25T21:07:12.749Z,14.37
2023-04-25T21:09:40.216Z,6.73
2023-04-25T21:12:07.561Z,13.47
2023-04-25T21:14:34.760Z,17.47
2023-04-25T21:17:01.646Z,10.93
2023-04-25T21:19:30.590Z,11.30
2023-04-25T21:21:58.465Z,11.47
2023-04-25T21:24:27.275Z,11.63
2023-04-25T21:26:54.111Z,7.80
2023-04-25T21:29:21.270Z,10.23
2023-04-25T21:31:48.201Z,7.97
2023-04-25T21:34:15.101Z,6.60
2023-04-25T21:36:44.249Z,5.80
2023-04-25T21:39:11.293Z,7.17
2023-04-25T21:41:38.655Z,5.37
2023-04-25T21:44:06.854Z,13.43
2023-04-25T21:46:34.172Z,12.90
2023-04-25T21:49:01.038Z,12.57
2023-04-25T21:51:29.139Z,11.00
2023-04-25T21:54:00.711Z,8.73
2023-04-25T21:56:27.522Z,9.03
2023-04-25T21:58:54.773Z,7.07
2023-04-25T22:01:21.844Z,17.50
2023-04-25T22:03:49.305Z,15.37
2023-04-25T22:06:16.216Z,7.50
2023-04-25T22:08:43.517Z,6.20
2023-04-25T22:11:12.332Z,6.00
2023-04-25T22:13:40.223Z,10.67
2023-04-25T22:16:07.241Z,9.23
2023-04-25T22:18:34.166Z,6.80
2023-04-25T22:21:02.402Z,11.47
2023-04-25T22:23:29.733Z,9.50
2023-04-25T22:25:57.014Z,12.83
2023-04-25T22:28:25.552Z,14.63
2023-04-25T22:30:52.450Z,7.70
2023-04-25T22:33:19.646Z,15.97
2023-04-25T22:35:46.566Z,8.37
2023-04-25T22:38:13.671Z,9.40
2023-04-25T22:40:40.510Z,14.77
2023-04-25T22:43:07.625Z,11.30
2023-04-25T22:45:36.157Z,11.47
2023-04-25T22:48:03.779Z,10.13
2023-04-25T22:50:30.992Z,9.40
2023-04-25T22:52:58.524Z,9.60
2023-04-25T22:55:26.765Z,11.87
2023-04-25T22:57:53.922Z,6.47
2023-04-25T23:00:21.796Z,9.53
2023-04-25T23:02:50.912Z,10.13
2023-04-25T23:05:18.511Z,8.53
2023-04-25T23:07:45.824Z,9.63
2023-04-25T23:10:15.363Z,14.50
2023-04-25T23:12:42.307Z,10.47
2023-04-25T23:15:10.440Z,9.70
2023-04-25T23:17:37.591Z,14.03
2023-04-25T23:20:07.890Z,16.77
2023-04-25T23:22:35.231Z,16.03
2023-04-25T23:25:02.451Z,14.67
2023-04-25T23:27:29.309Z,15.40
2023-04-25T23:29:56.925Z,15.97
2023-04-25T23:32:25.996Z,14.13
2023-04-25T23:34:53.084Z,18.83
2023-04-25T23:37:21.620Z,9.77
2023-04-25T23:39:49.755Z,16.27
2023-04-25T23:42:17.200Z,13.37
2023-04-25T23:44:44.182Z,12.43
2023-04-25T23:47:13.500Z,16.20
2023-04-25T23:49:41.180Z,10.77
2023-04-25T23:52:08.288Z,9.77
2023-04-25T23:54:36.545Z,12.50
2023-04-25T23:57:06.508Z,13.13
2023-04-25T23:59:34.001Z,10.23
